SDM807 LGZA-UGTB
Flight info
| Callsign | SDM807 |
|---|---|
| Flight time | 2h 52m |
| Altitude | 35000 |
| Route | ARA UN604 SOSIR UG802 IMR UR32 HAY UT54 SIV UW706 TBN UG261 NOLGA N61 LAGAS |
| Aircraft | B738/M-SDE2E3FGHIRWXY/LB1 |
Departure
| Time | 2026-05-05 13:58 |
|---|---|
| Airport | Zakynthos International Airport Dionysios Solomos (LGZA) |
Arrival
| Time | 2026-05-05 16:51 |
|---|---|
| Airport | Tbilisi International Airport (UGTB) |
| Time | Latitude | Longitude | Altitude | Speed | Heading |
|---|---|---|---|---|---|
| 2026-05-05 13:40 | 37.75388 | 20.88478 | 14 ft | 0 kts | 230° |
| 2026-05-05 13:53 | 37.75385 | 20.88466 | 15 ft | 3 kts | 257° |
| 2026-05-05 13:53 | 37.75403 | 20.88435 | 14 ft | 6 kts | 327° |
| 2026-05-05 13:54 | 37.75455 | 20.88404 | 15 ft | 9 kts | 322° |
| 2026-05-05 13:54 | 37.75478 | 20.88331 | 16 ft | 9 kts | 281° |
| 2026-05-05 13:54 | 37.75513 | 20.88272 | 15 ft | 9 kts | 337° |
| 2026-05-05 13:54 | 37.75571 | 20.88249 | 15 ft | 9 kts | 343° |
| 2026-05-05 13:55 | 37.75641 | 20.88223 | 16 ft | 12 kts | 343° |
| 2026-05-05 13:55 | 37.75739 | 20.88187 | 17 ft | 17 kts | 343° |
| 2026-05-05 13:55 | 37.75873 | 20.88137 | 16 ft | 22 kts | 343° |
| 2026-05-05 13:55 | 37.75996 | 20.88098 | 15 ft | 13 kts | 6° |
| 2026-05-05 13:56 | 37.76059 | 20.88095 | 14 ft | 1 kts | 300° |
| 2026-05-05 13:56 | 37.76054 | 20.88085 | 14 ft | 1 kts | 231° |
| 2026-05-05 13:56 | 37.76037 | 20.88080 | 14 ft | 3 kts | 188° |
| 2026-05-05 13:56 | 37.76013 | 20.88085 | 17 ft | 4 kts | 163° |
| 2026-05-05 13:57 | 37.75971 | 20.88101 | 15 ft | 9 kts | 164° |
| 2026-05-05 13:57 | 37.75925 | 20.88118 | 17 ft | 0 kts | 163° |
| 2026-05-05 13:57 | 37.75893 | 20.88130 | 15 ft | 27 kts | 163° |
| 2026-05-05 13:58 | 37.75433 | 20.88302 | 15 ft | 109 kts | 163° |
| 2026-05-05 13:58 | 37.74475 | 20.88657 | 24 ft | 176 kts | 163° |
| 2026-05-05 13:58 | 37.73218 | 20.89118 | 685 ft | 194 kts | 166° |
| 2026-05-05 13:58 | 37.71831 | 20.89641 | 1273 ft | 224 kts | 165° |
| 2026-05-05 13:59 | 37.68606 | 20.90918 | 1653 ft | 255 kts | 164° |
| 2026-05-05 13:59 | 37.66922 | 20.91585 | 1912 ft | 260 kts | 164° |
| 2026-05-05 14:00 | 37.63438 | 20.92956 | 2559 ft | 261 kts | 164° |
| 2026-05-05 14:00 | 37.61708 | 20.93634 | 2925 ft | 261 kts | 163° |
| 2026-05-05 14:00 | 37.59970 | 20.94312 | 3465 ft | 260 kts | 163° |
| 2026-05-05 14:00 | 37.58277 | 20.94948 | 4412 ft | 248 kts | 170° |
| 2026-05-05 14:01 | 37.56609 | 20.94840 | 5287 ft | 242 kts | 202° |
| 2026-05-05 14:01 | 37.55223 | 20.93673 | 5908 ft | 242 kts | 233° |
| 2026-05-05 14:01 | 37.54442 | 20.91829 | 6602 ft | 239 kts | 259° |
| 2026-05-05 14:01 | 37.54411 | 20.89757 | 7238 ft | 238 kts | 287° |
| 2026-05-05 14:02 | 37.55132 | 20.87929 | 7859 ft | 238 kts | 314° |
| 2026-05-05 14:02 | 37.56462 | 20.86733 | 8521 ft | 237 kts | 340° |
| 2026-05-05 14:02 | 37.58089 | 20.86365 | 9266 ft | 234 kts | 1° |
| 2026-05-05 14:02 | 37.59702 | 20.86508 | 9934 ft | 238 kts | 5° |
| 2026-05-05 14:03 | 37.61361 | 20.86744 | 10533 ft | 241 kts | 6° |
| 2026-05-05 14:03 | 37.63039 | 20.86990 | 11130 ft | 244 kts | 6° |
| 2026-05-05 14:03 | 37.64733 | 20.87234 | 11770 ft | 245 kts | 5° |
| 2026-05-05 14:03 | 37.66425 | 20.87470 | 12420 ft | 245 kts | 5° |
| 2026-05-05 14:04 | 37.68128 | 20.87701 | 13045 ft | 247 kts | 4° |
| 2026-05-05 14:04 | 37.69848 | 20.87930 | 13655 ft | 250 kts | 4° |
| 2026-05-05 14:04 | 37.71587 | 20.88159 | 14251 ft | 251 kts | 4° |
| 2026-05-05 14:04 | 37.73332 | 20.88389 | 14795 ft | 254 kts | 4° |
| 2026-05-05 14:05 | 37.75098 | 20.88621 | 15331 ft | 256 kts | 3° |
| 2026-05-05 14:05 | 37.76913 | 20.88790 | 15657 ft | 269 kts | 0° |
| 2026-05-05 14:05 | 37.78783 | 20.88905 | 16079 ft | 275 kts | 0° |
| 2026-05-05 14:05 | 37.80696 | 20.89016 | 16723 ft | 275 kts | 360° |
| 2026-05-05 14:06 | 37.82613 | 20.89126 | 17305 ft | 277 kts | 359° |
| 2026-05-05 14:06 | 37.84554 | 20.89240 | 17834 ft | 281 kts | 359° |
| 2026-05-05 14:06 | 37.86519 | 20.89358 | 18397 ft | 283 kts | 359° |
| 2026-05-05 14:06 | 37.88493 | 20.89479 | 18899 ft | 285 kts | 359° |
| 2026-05-05 14:07 | 37.90480 | 20.89602 | 19418 ft | 286 kts | 359° |
| 2026-05-05 14:07 | 37.92475 | 20.89727 | 19917 ft | 288 kts | 359° |
| 2026-05-05 14:07 | 37.94481 | 20.89853 | 20414 ft | 289 kts | 359° |
| 2026-05-05 14:07 | 37.96505 | 20.90274 | 20616 ft | 310 kts | 19° |
| 2026-05-05 14:08 | 37.98290 | 20.91979 | 20724 ft | 337 kts | 45° |
| 2026-05-05 14:08 | 37.99612 | 20.94552 | 20840 ft | 360 kts | 58° |
| 2026-05-05 14:08 | 38.00676 | 20.97502 | 20993 ft | 376 kts | 62° |
| 2026-05-05 14:08 | 38.01701 | 21.00626 | 21056 ft | 391 kts | 63° |
| 2026-05-05 14:09 | 38.02737 | 21.03836 | 21181 ft | 405 kts | 63° |
| 2026-05-05 14:09 | 38.03831 | 21.07184 | 21269 ft | 417 kts | 63° |
| 2026-05-05 14:09 | 38.04973 | 21.10622 | 21454 ft | 427 kts | 62° |
| 2026-05-05 14:09 | 38.06141 | 21.14098 | 21869 ft | 429 kts | 62° |
| 2026-05-05 14:10 | 38.07317 | 21.17574 | 22429 ft | 428 kts | 62° |
| 2026-05-05 14:10 | 38.08495 | 21.21045 | 22949 ft | 429 kts | 61° |
| 2026-05-05 14:10 | 38.09684 | 21.24539 | 23268 ft | 434 kts | 61° |
| 2026-05-05 14:10 | 38.10886 | 21.28074 | 23588 ft | 438 kts | 61° |
| 2026-05-05 14:11 | 38.12098 | 21.31645 | 23955 ft | 440 kts | 61° |
| 2026-05-05 14:11 | 38.13307 | 21.35219 | 24348 ft | 441 kts | 61° |
| 2026-05-05 14:11 | 38.14485 | 21.38822 | 24684 ft | 446 kts | 65° |
| 2026-05-05 14:11 | 38.15234 | 21.42717 | 24843 ft | 462 kts | 78° |
| 2026-05-05 14:12 | 38.15336 | 21.46821 | 25227 ft | 469 kts | 90° |
| 2026-05-05 14:12 | 38.14854 | 21.50936 | 25687 ft | 472 kts | 97° |
| 2026-05-05 14:12 | 38.14204 | 21.55039 | 26007 ft | 475 kts | 97° |
| 2026-05-05 14:12 | 38.13523 | 21.59180 | 26087 ft | 483 kts | 97° |
| 2026-05-05 14:13 | 38.12835 | 21.63373 | 26333 ft | 486 kts | 97° |
| 2026-05-05 14:13 | 38.12158 | 21.67577 | 26724 ft | 486 kts | 97° |
| 2026-05-05 14:13 | 38.11493 | 21.71783 | 27039 ft | 487 kts | 97° |
| 2026-05-05 14:13 | 38.10834 | 21.76014 | 27272 ft | 490 kts | 97° |
| 2026-05-05 14:14 | 38.10176 | 21.80280 | 27499 ft | 494 kts | 96° |
| 2026-05-05 14:14 | 38.09523 | 21.84517 | 27804 ft | 495 kts | 96° |
| 2026-05-05 14:14 | 38.08860 | 21.88811 | 28130 ft | 496 kts | 96° |
| 2026-05-05 14:14 | 38.08193 | 21.93115 | 28378 ft | 499 kts | 96° |
| 2026-05-05 14:15 | 38.07519 | 21.97453 | 28574 ft | 502 kts | 96° |
| 2026-05-05 14:15 | 38.06840 | 22.01808 | 28773 ft | 504 kts | 96° |
| 2026-05-05 14:15 | 38.06155 | 22.06184 | 29049 ft | 506 kts | 96° |
| 2026-05-05 14:15 | 38.05467 | 22.10564 | 29316 ft | 507 kts | 96° |
| 2026-05-05 14:16 | 38.04777 | 22.14941 | 29747 ft | 506 kts | 96° |
| 2026-05-05 14:16 | 38.04085 | 22.19314 | 30136 ft | 505 kts | 96° |
| 2026-05-05 14:16 | 38.03395 | 22.23673 | 30422 ft | 505 kts | 96° |
| 2026-05-05 14:16 | 38.02703 | 22.28042 | 30703 ft | 505 kts | 96° |
| 2026-05-05 14:17 | 38.02010 | 22.32400 | 31020 ft | 503 kts | 96° |
| 2026-05-05 14:17 | 38.01319 | 22.36733 | 31381 ft | 501 kts | 96° |
| 2026-05-05 14:17 | 38.00627 | 22.41060 | 31703 ft | 499 kts | 96° |
| 2026-05-05 14:17 | 37.99938 | 22.45364 | 31965 ft | 499 kts | 96° |
| 2026-05-05 14:18 | 37.99247 | 22.49680 | 32126 ft | 500 kts | 96° |
| 2026-05-05 14:18 | 37.98551 | 22.54007 | 32337 ft | 501 kts | 97° |
| 2026-05-05 14:18 | 37.97854 | 22.58333 | 32642 ft | 500 kts | 97° |
| 2026-05-05 14:18 | 37.97156 | 22.62652 | 32987 ft | 497 kts | 97° |
| 2026-05-05 14:19 | 37.96461 | 22.66936 | 33271 ft | 496 kts | 97° |
| 2026-05-05 14:19 | 37.95833 | 22.71223 | 33458 ft | 495 kts | 95° |
| 2026-05-05 14:19 | 37.95287 | 22.75548 | 33640 ft | 496 kts | 94° |
| 2026-05-05 14:19 | 37.94765 | 22.79857 | 33890 ft | 495 kts | 94° |
| 2026-05-05 14:20 | 37.94233 | 22.84151 | 34151 ft | 494 kts | 94° |
| 2026-05-05 14:20 | 37.93689 | 22.88384 | 34408 ft | 493 kts | 95° |
| 2026-05-05 14:20 | 37.93129 | 22.92660 | 34650 ft | 491 kts | 94° |
| 2026-05-05 14:20 | 37.92713 | 22.96941 | 34778 ft | 490 kts | 89° |
| 2026-05-05 14:21 | 37.92491 | 23.01245 | 34898 ft | 489 kts | 88° |
| 2026-05-05 14:21 | 37.92339 | 23.05543 | 35088 ft | 488 kts | 87° |
| 2026-05-05 14:21 | 37.92052 | 23.14167 | 35048 ft | 488 kts | 87° |
| 2026-05-05 14:22 | 37.91698 | 23.22740 | 35041 ft | 486 kts | 88° |
| 2026-05-05 14:22 | 37.91303 | 23.31264 | 35030 ft | 484 kts | 88° |
| 2026-05-05 14:23 | 37.90900 | 23.39721 | 35052 ft | 483 kts | 88° |
| 2026-05-05 14:23 | 37.90491 | 23.48205 | 35042 ft | 483 kts | 88° |
| 2026-05-05 14:24 | 37.90081 | 23.56687 | 35046 ft | 483 kts | 88° |
| 2026-05-05 14:24 | 37.89664 | 23.65195 | 35050 ft | 484 kts | 88° |
| 2026-05-05 14:25 | 37.89241 | 23.73680 | 35052 ft | 485 kts | 88° |
| 2026-05-05 14:25 | 37.89111 | 23.82195 | 35002 ft | 480 kts | 77° |
| 2026-05-05 14:26 | 37.90344 | 23.90397 | 35077 ft | 474 kts | 71° |
| 2026-05-05 14:26 | 37.91685 | 23.98590 | 35066 ft | 476 kts | 72° |
| 2026-05-05 14:27 | 37.92972 | 24.06822 | 35077 ft | 477 kts | 72° |
| 2026-05-05 14:27 | 37.94231 | 24.15093 | 35046 ft | 478 kts | 72° |
| 2026-05-05 14:28 | 37.95480 | 24.23363 | 35038 ft | 477 kts | 72° |
| 2026-05-05 14:28 | 37.96512 | 24.30215 | 35053 ft | 476 kts | 72° |
| 2026-05-05 14:29 | 37.97749 | 24.38439 | 35058 ft | 474 kts | 72° |
| 2026-05-05 14:29 | 37.99167 | 24.46558 | 35012 ft | 465 kts | 63° |
| 2026-05-05 14:30 | 38.00445 | 24.50260 | 35103 ft | 454 kts | 54° |
| 2026-05-05 14:30 | 38.02066 | 24.53655 | 35021 ft | 446 kts | 45° |
| 2026-05-05 14:30 | 38.04014 | 24.56672 | 35140 ft | 437 kts | 42° |
| 2026-05-05 14:30 | 38.06000 | 24.59596 | 35066 ft | 441 kts | 41° |
| 2026-05-05 14:31 | 38.09986 | 24.65513 | 35046 ft | 447 kts | 42° |
| 2026-05-05 14:31 | 38.13987 | 24.71575 | 35056 ft | 449 kts | 43° |
| 2026-05-05 14:32 | 38.17995 | 24.77677 | 35057 ft | 450 kts | 43° |
| 2026-05-05 14:32 | 38.21983 | 24.83784 | 35072 ft | 450 kts | 43° |
| 2026-05-05 14:33 | 38.25985 | 24.89926 | 35057 ft | 449 kts | 43° |
| 2026-05-05 14:33 | 38.29962 | 24.96040 | 35049 ft | 448 kts | 43° |
| 2026-05-05 14:34 | 38.33922 | 25.02137 | 35063 ft | 446 kts | 43° |
| 2026-05-05 14:34 | 38.37836 | 25.08181 | 35055 ft | 446 kts | 45° |
| 2026-05-05 14:35 | 38.39484 | 25.11585 | 34997 ft | 459 kts | 61° |
| 2026-05-05 14:35 | 38.40402 | 25.15514 | 35085 ft | 469 kts | 75° |
| 2026-05-05 14:35 | 38.40543 | 25.19722 | 35049 ft | 479 kts | 88° |
| 2026-05-05 14:35 | 38.40301 | 25.23916 | 35165 ft | 477 kts | 89° |
| 2026-05-05 14:36 | 38.40027 | 25.28190 | 35055 ft | 480 kts | 89° |
| 2026-05-05 14:36 | 38.39762 | 25.32430 | 35074 ft | 480 kts | 89° |
| 2026-05-05 14:36 | 38.39289 | 25.40923 | 35067 ft | 480 kts | 88° |
| 2026-05-05 14:37 | 38.38856 | 25.49434 | 35054 ft | 482 kts | 88° |
| 2026-05-05 14:37 | 38.38421 | 25.57962 | 35063 ft | 482 kts | 88° |
| 2026-05-05 14:38 | 38.37975 | 25.66512 | 35073 ft | 484 kts | 89° |
| 2026-05-05 14:38 | 38.37510 | 25.75073 | 35057 ft | 485 kts | 89° |
| 2026-05-05 14:39 | 38.37029 | 25.83644 | 35050 ft | 485 kts | 89° |
| 2026-05-05 14:39 | 38.36501 | 25.92177 | 35069 ft | 486 kts | 90° |
| 2026-05-05 14:40 | 38.35873 | 26.00748 | 35059 ft | 486 kts | 90° |
| 2026-05-05 14:40 | 38.35255 | 26.09314 | 35048 ft | 485 kts | 90° |
| 2026-05-05 14:41 | 38.34818 | 26.17858 | 35030 ft | 480 kts | 85° |
| 2026-05-05 14:41 | 38.34769 | 26.26346 | 35040 ft | 480 kts | 87° |
| 2026-05-05 14:42 | 38.34434 | 26.34833 | 35032 ft | 480 kts | 89° |
| 2026-05-05 14:42 | 38.34057 | 26.43332 | 35046 ft | 479 kts | 88° |
| 2026-05-05 14:43 | 38.33711 | 26.51796 | 35042 ft | 478 kts | 88° |
| 2026-05-05 14:43 | 38.33379 | 26.60209 | 35054 ft | 478 kts | 88° |
| 2026-05-05 14:44 | 38.33042 | 26.68663 | 35044 ft | 478 kts | 88° |
| 2026-05-05 14:44 | 38.32696 | 26.77131 | 35024 ft | 479 kts | 88° |
| 2026-05-05 14:45 | 38.32345 | 26.85574 | 35032 ft | 479 kts | 88° |
| 2026-05-05 14:45 | 38.31986 | 26.94058 | 35027 ft | 480 kts | 89° |
| 2026-05-05 14:46 | 38.31903 | 27.02513 | 34974 ft | 475 kts | 77° |
| 2026-05-05 14:46 | 38.32480 | 27.06624 | 35099 ft | 468 kts | 73° |
| 2026-05-05 14:46 | 38.33143 | 27.10668 | 35064 ft | 469 kts | 73° |
| 2026-05-05 14:47 | 38.34474 | 27.18835 | 35047 ft | 471 kts | 73° |
| 2026-05-05 14:47 | 38.35742 | 27.27026 | 35023 ft | 471 kts | 74° |
| 2026-05-05 14:48 | 38.36979 | 27.35212 | 35008 ft | 472 kts | 74° |
| 2026-05-05 14:48 | 38.38210 | 27.43368 | 35028 ft | 472 kts | 74° |
| 2026-05-05 14:49 | 38.39440 | 27.51589 | 35044 ft | 472 kts | 75° |
| 2026-05-05 14:49 | 38.40655 | 27.59809 | 35026 ft | 472 kts | 75° |
| 2026-05-05 14:50 | 38.41865 | 27.68037 | 35013 ft | 471 kts | 75° |
| 2026-05-05 14:50 | 38.43060 | 27.76197 | 35020 ft | 470 kts | 75° |
| 2026-05-05 14:51 | 38.44255 | 27.84395 | 35007 ft | 469 kts | 75° |
| 2026-05-05 14:51 | 38.45442 | 27.92576 | 35009 ft | 468 kts | 75° |
| 2026-05-05 14:52 | 38.46622 | 28.00747 | 35025 ft | 467 kts | 75° |
| 2026-05-05 14:52 | 38.47785 | 28.08850 | 35045 ft | 466 kts | 75° |
| 2026-05-05 14:53 | 38.48951 | 28.17004 | 35024 ft | 466 kts | 75° |
| 2026-05-05 14:53 | 38.50112 | 28.25160 | 35031 ft | 466 kts | 75° |
| 2026-05-05 14:54 | 38.51687 | 28.33154 | 35052 ft | 462 kts | 69° |
| 2026-05-05 14:54 | 38.53523 | 28.40982 | 35033 ft | 463 kts | 69° |
| 2026-05-05 14:55 | 38.55313 | 28.48924 | 35062 ft | 464 kts | 70° |
| 2026-05-05 14:55 | 38.57059 | 28.56899 | 35049 ft | 466 kts | 70° |
| 2026-05-05 14:56 | 38.58449 | 28.64965 | 35043 ft | 471 kts | 78° |
| 2026-05-05 14:56 | 38.59241 | 28.73278 | 35035 ft | 472 kts | 79° |
| 2026-05-05 14:57 | 38.60022 | 28.81614 | 35040 ft | 472 kts | 79° |
| 2026-05-05 14:57 | 38.60859 | 28.89932 | 35051 ft | 472 kts | 78° |
| 2026-05-05 14:58 | 38.61712 | 28.98254 | 35048 ft | 472 kts | 78° |
| 2026-05-05 14:58 | 38.62554 | 29.06561 | 35056 ft | 471 kts | 79° |
| 2026-05-05 14:59 | 38.63388 | 29.14852 | 35042 ft | 470 kts | 79° |
| 2026-05-05 14:59 | 38.64223 | 29.23130 | 35055 ft | 468 kts | 79° |
| 2026-05-05 15:00 | 38.64913 | 29.29999 | 35049 ft | 468 kts | 79° |
| 2026-05-05 15:00 | 38.65873 | 29.39639 | 35053 ft | 467 kts | 79° |
| 2026-05-05 15:01 | 38.66684 | 29.47830 | 35044 ft | 466 kts | 78° |
| 2026-05-05 15:01 | 38.67681 | 29.56070 | 35096 ft | 465 kts | 77° |
| 2026-05-05 15:02 | 38.68752 | 29.64186 | 35069 ft | 465 kts | 77° |
| 2026-05-05 15:02 | 38.69797 | 29.72361 | 35060 ft | 465 kts | 77° |
| 2026-05-05 15:03 | 38.70817 | 29.80548 | 35050 ft | 466 kts | 78° |
| 2026-05-05 15:03 | 38.71826 | 29.88715 | 35048 ft | 465 kts | 78° |
| 2026-05-05 15:04 | 38.72832 | 29.96890 | 35014 ft | 466 kts | 78° |
| 2026-05-05 15:04 | 38.73863 | 30.05061 | 35022 ft | 465 kts | 77° |
| 2026-05-05 15:05 | 38.75508 | 30.17295 | 35035 ft | 464 kts | 78° |
| 2026-05-05 15:06 | 38.76588 | 30.25422 | 35005 ft | 464 kts | 78° |
| 2026-05-05 15:06 | 38.77654 | 30.33549 | 35032 ft | 463 kts | 78° |
| 2026-05-05 15:07 | 38.78714 | 30.41678 | 35022 ft | 462 kts | 78° |
| 2026-05-05 15:07 | 38.79760 | 30.49739 | 35016 ft | 462 kts | 78° |
| 2026-05-05 15:08 | 38.81272 | 30.57701 | 34983 ft | 457 kts | 64° |
| 2026-05-05 15:08 | 38.82522 | 30.61434 | 35122 ft | 452 kts | 63° |
| 2026-05-05 15:08 | 38.83794 | 30.65135 | 35015 ft | 455 kts | 63° |
| 2026-05-05 15:09 | 38.86327 | 30.72528 | 35012 ft | 455 kts | 63° |
| 2026-05-05 15:09 | 38.88836 | 30.79996 | 35019 ft | 455 kts | 64° |
| 2026-05-05 15:10 | 38.91322 | 30.87485 | 35032 ft | 455 kts | 64° |
| 2026-05-05 15:10 | 38.93780 | 30.94926 | 35032 ft | 455 kts | 64° |
| 2026-05-05 15:11 | 38.96254 | 31.02435 | 35031 ft | 456 kts | 64° |
| 2026-05-05 15:11 | 38.98723 | 31.09944 | 35038 ft | 455 kts | 64° |
| 2026-05-05 15:12 | 39.01186 | 31.17451 | 35032 ft | 455 kts | 64° |
| 2026-05-05 15:12 | 39.03631 | 31.24926 | 35033 ft | 454 kts | 63° |
| 2026-05-05 15:13 | 39.06073 | 31.32411 | 35035 ft | 453 kts | 63° |
| 2026-05-05 15:13 | 39.08508 | 31.39895 | 35021 ft | 453 kts | 63° |
| 2026-05-05 15:14 | 39.10925 | 31.47343 | 35021 ft | 452 kts | 63° |
| 2026-05-05 15:14 | 39.13342 | 31.54810 | 35037 ft | 451 kts | 63° |
| 2026-05-05 15:15 | 39.15752 | 31.62273 | 35025 ft | 450 kts | 63° |
| 2026-05-05 15:15 | 39.18146 | 31.69709 | 35024 ft | 450 kts | 63° |
| 2026-05-05 15:16 | 39.20544 | 31.77175 | 35006 ft | 450 kts | 63° |
| 2026-05-05 15:16 | 39.22920 | 31.84598 | 35019 ft | 450 kts | 63° |
| 2026-05-05 15:17 | 39.25306 | 31.92087 | 35024 ft | 450 kts | 63° |
| 2026-05-05 15:17 | 39.27666 | 31.99520 | 35012 ft | 450 kts | 63° |
| 2026-05-05 15:18 | 39.30036 | 32.07000 | 35008 ft | 451 kts | 63° |
| 2026-05-05 15:18 | 39.32406 | 32.14500 | 35023 ft | 451 kts | 63° |
| 2026-05-05 15:19 | 39.34773 | 32.22013 | 35020 ft | 451 kts | 63° |
| 2026-05-05 15:19 | 39.36742 | 32.28274 | 35006 ft | 452 kts | 63° |
| 2026-05-05 15:20 | 39.39110 | 32.35824 | 35016 ft | 452 kts | 63° |
| 2026-05-05 15:20 | 39.41403 | 32.43367 | 35012 ft | 453 kts | 64° |
| 2026-05-05 15:21 | 39.43626 | 32.51018 | 34987 ft | 457 kts | 69° |
| 2026-05-05 15:21 | 39.44699 | 32.59197 | 35048 ft | 462 kts | 78° |
| 2026-05-05 15:22 | 39.45488 | 32.67425 | 35025 ft | 463 kts | 78° |
| 2026-05-05 15:22 | 39.46336 | 32.75696 | 35007 ft | 463 kts | 77° |
| 2026-05-05 15:23 | 39.47216 | 32.83987 | 35005 ft | 464 kts | 77° |
| 2026-05-05 15:23 | 39.48083 | 32.92227 | 34996 ft | 464 kts | 77° |
| 2026-05-05 15:24 | 39.48951 | 33.00513 | 34977 ft | 464 kts | 77° |
| 2026-05-05 15:24 | 39.49818 | 33.08824 | 34967 ft | 464 kts | 77° |
| 2026-05-05 15:25 | 39.50670 | 33.17053 | 34986 ft | 463 kts | 77° |
| 2026-05-05 15:25 | 39.51522 | 33.25329 | 34966 ft | 462 kts | 77° |
| 2026-05-05 15:26 | 39.52367 | 33.33598 | 34962 ft | 461 kts | 77° |
| 2026-05-05 15:26 | 39.53201 | 33.41802 | 34968 ft | 460 kts | 78° |
| 2026-05-05 15:27 | 39.54031 | 33.50017 | 34959 ft | 460 kts | 78° |
| 2026-05-05 15:27 | 39.54851 | 33.58188 | 34975 ft | 459 kts | 78° |
| 2026-05-05 15:28 | 39.55669 | 33.66405 | 34966 ft | 458 kts | 78° |
| 2026-05-05 15:28 | 39.56481 | 33.74605 | 34972 ft | 459 kts | 78° |
| 2026-05-05 15:29 | 39.57288 | 33.82812 | 34966 ft | 459 kts | 78° |
| 2026-05-05 15:29 | 39.58089 | 33.91020 | 34973 ft | 460 kts | 78° |
| 2026-05-05 15:30 | 39.58888 | 33.99266 | 34976 ft | 461 kts | 78° |
| 2026-05-05 15:30 | 39.59678 | 34.07494 | 34974 ft | 462 kts | 79° |
| 2026-05-05 15:31 | 39.60468 | 34.15778 | 34972 ft | 463 kts | 79° |
| 2026-05-05 15:31 | 39.61253 | 34.24068 | 34965 ft | 463 kts | 79° |
| 2026-05-05 15:32 | 39.62033 | 34.32368 | 34972 ft | 464 kts | 79° |
| 2026-05-05 15:32 | 39.62805 | 34.40641 | 34955 ft | 464 kts | 79° |
| 2026-05-05 15:33 | 39.63575 | 34.48949 | 34969 ft | 463 kts | 79° |
| 2026-05-05 15:33 | 39.64213 | 34.55849 | 34958 ft | 462 kts | 79° |
| 2026-05-05 15:34 | 39.65097 | 34.65488 | 34964 ft | 461 kts | 80° |
| 2026-05-05 15:34 | 39.65849 | 34.73767 | 34961 ft | 461 kts | 81° |
| 2026-05-05 15:35 | 39.66593 | 34.82022 | 34950 ft | 460 kts | 81° |
| 2026-05-05 15:35 | 39.67326 | 34.90225 | 34964 ft | 458 kts | 81° |
| 2026-05-05 15:36 | 39.68056 | 34.98458 | 34950 ft | 458 kts | 81° |
| 2026-05-05 15:36 | 39.68778 | 35.06666 | 34973 ft | 457 kts | 81° |
| 2026-05-05 15:37 | 39.69489 | 35.14818 | 34960 ft | 457 kts | 82° |
| 2026-05-05 15:37 | 39.70200 | 35.23029 | 34954 ft | 457 kts | 82° |
| 2026-05-05 15:38 | 39.70901 | 35.31204 | 34971 ft | 457 kts | 82° |
| 2026-05-05 15:38 | 39.71599 | 35.39419 | 34966 ft | 458 kts | 82° |
| 2026-05-05 15:39 | 39.72292 | 35.47625 | 34963 ft | 459 kts | 82° |
| 2026-05-05 15:39 | 39.72982 | 35.55874 | 34975 ft | 460 kts | 82° |
| 2026-05-05 15:40 | 39.73663 | 35.64150 | 34958 ft | 461 kts | 83° |
| 2026-05-05 15:40 | 39.74333 | 35.72441 | 34985 ft | 462 kts | 82° |
| 2026-05-05 15:41 | 39.74999 | 35.80750 | 34979 ft | 463 kts | 82° |
| 2026-05-05 15:41 | 39.75659 | 35.89070 | 34989 ft | 463 kts | 82° |
| 2026-05-05 15:42 | 39.76315 | 35.97404 | 34987 ft | 464 kts | 83° |
| 2026-05-05 15:42 | 39.76965 | 36.05749 | 34980 ft | 464 kts | 84° |
| 2026-05-05 15:43 | 39.77612 | 36.14099 | 34984 ft | 464 kts | 84° |
| 2026-05-05 15:43 | 39.78253 | 36.22452 | 34984 ft | 464 kts | 84° |
| 2026-05-05 15:44 | 39.78581 | 36.30832 | 34988 ft | 464 kts | 89° |
| 2026-05-05 15:44 | 39.78601 | 36.39224 | 34980 ft | 464 kts | 90° |
| 2026-05-05 15:45 | 39.78624 | 36.47554 | 34993 ft | 464 kts | 90° |
| 2026-05-05 15:45 | 39.78682 | 36.55938 | 34996 ft | 463 kts | 90° |
| 2026-05-05 15:46 | 39.78748 | 36.64316 | 34996 ft | 463 kts | 90° |
| 2026-05-05 15:46 | 39.78806 | 36.72686 | 34988 ft | 463 kts | 90° |
| 2026-05-05 15:47 | 39.78857 | 36.81041 | 34988 ft | 462 kts | 90° |
| 2026-05-05 15:47 | 39.79562 | 36.89330 | 34998 ft | 462 kts | 75° |
| 2026-05-05 15:48 | 39.82085 | 36.97001 | 35032 ft | 462 kts | 61° |
| 2026-05-05 15:48 | 39.85311 | 37.04244 | 34996 ft | 463 kts | 60° |
| 2026-05-05 15:49 | 39.88527 | 37.11508 | 34985 ft | 463 kts | 61° |
| 2026-05-05 15:49 | 39.91702 | 37.18817 | 34973 ft | 464 kts | 62° |
| 2026-05-05 15:50 | 39.94856 | 37.26138 | 34969 ft | 464 kts | 62° |
| 2026-05-05 15:50 | 39.97992 | 37.33437 | 34978 ft | 463 kts | 62° |
| 2026-05-05 15:51 | 40.01141 | 37.40778 | 34959 ft | 464 kts | 62° |
| 2026-05-05 15:51 | 40.04288 | 37.48131 | 34972 ft | 463 kts | 62° |
| 2026-05-05 15:52 | 40.07420 | 37.55464 | 34959 ft | 464 kts | 62° |
| 2026-05-05 15:52 | 40.10572 | 37.62831 | 34977 ft | 464 kts | 62° |
| 2026-05-05 15:53 | 40.13721 | 37.70159 | 34964 ft | 464 kts | 62° |
| 2026-05-05 15:53 | 40.16885 | 37.77541 | 34966 ft | 464 kts | 62° |
| 2026-05-05 15:54 | 40.20040 | 37.84927 | 34955 ft | 464 kts | 62° |
| 2026-05-05 15:54 | 40.23168 | 37.92271 | 34953 ft | 464 kts | 62° |
| 2026-05-05 15:55 | 40.26293 | 37.99626 | 34967 ft | 464 kts | 62° |
| 2026-05-05 15:55 | 40.29426 | 38.07018 | 34958 ft | 465 kts | 62° |
| 2026-05-05 15:56 | 40.32569 | 38.14446 | 34962 ft | 465 kts | 63° |
| 2026-05-05 15:56 | 40.35615 | 38.21924 | 34966 ft | 465 kts | 64° |
| 2026-05-05 15:57 | 40.38624 | 38.29427 | 34974 ft | 466 kts | 63° |
| 2026-05-05 15:57 | 40.41801 | 38.36866 | 34976 ft | 467 kts | 62° |
| 2026-05-05 15:58 | 40.44992 | 38.44241 | 34980 ft | 467 kts | 62° |
| 2026-05-05 15:58 | 40.48185 | 38.51715 | 35008 ft | 467 kts | 62° |
| 2026-05-05 15:59 | 40.51337 | 38.59145 | 34982 ft | 468 kts | 63° |
| 2026-05-05 15:59 | 40.54426 | 38.66692 | 35001 ft | 467 kts | 64° |
| 2026-05-05 16:00 | 40.57466 | 38.74199 | 35023 ft | 467 kts | 64° |
| 2026-05-05 16:00 | 40.60532 | 38.81750 | 35010 ft | 468 kts | 64° |
| 2026-05-05 16:01 | 40.63586 | 38.89273 | 35016 ft | 468 kts | 64° |
| 2026-05-05 16:01 | 40.66648 | 38.96852 | 35005 ft | 467 kts | 64° |
| 2026-05-05 16:02 | 40.69690 | 39.04421 | 35021 ft | 466 kts | 64° |
| 2026-05-05 16:02 | 40.72705 | 39.11940 | 35015 ft | 466 kts | 64° |
| 2026-05-05 16:03 | 40.75730 | 39.19503 | 35013 ft | 466 kts | 64° |
| 2026-05-05 16:03 | 40.78747 | 39.27062 | 35037 ft | 465 kts | 64° |
| 2026-05-05 16:04 | 40.81756 | 39.34621 | 35045 ft | 465 kts | 64° |
| 2026-05-05 16:04 | 40.84760 | 39.42187 | 35040 ft | 464 kts | 64° |
| 2026-05-05 16:05 | 40.87737 | 39.49705 | 35036 ft | 464 kts | 65° |
| 2026-05-05 16:05 | 40.90725 | 39.57270 | 35051 ft | 464 kts | 65° |
| 2026-05-05 16:06 | 40.93712 | 39.64852 | 35057 ft | 464 kts | 65° |
| 2026-05-05 16:06 | 40.96684 | 39.72411 | 35045 ft | 465 kts | 65° |
| 2026-05-05 16:07 | 40.99503 | 39.80140 | 35016 ft | 463 kts | 73° |
| 2026-05-05 16:07 | 41.00940 | 39.88310 | 35082 ft | 458 kts | 82° |
| 2026-05-05 16:08 | 41.02113 | 39.96611 | 35062 ft | 458 kts | 82° |
| 2026-05-05 16:08 | 41.03310 | 40.04925 | 35051 ft | 459 kts | 82° |
| 2026-05-05 16:09 | 41.04534 | 40.13237 | 35031 ft | 459 kts | 82° |
| 2026-05-05 16:09 | 41.05754 | 40.21484 | 35037 ft | 459 kts | 82° |
| 2026-05-05 16:10 | 41.06979 | 40.29793 | 35036 ft | 459 kts | 82° |
| 2026-05-05 16:10 | 41.08195 | 40.38098 | 35040 ft | 459 kts | 82° |
| 2026-05-05 16:11 | 41.09407 | 40.46423 | 35034 ft | 459 kts | 82° |
| 2026-05-05 16:12 | 41.11804 | 40.63020 | 35026 ft | 459 kts | 82° |
| 2026-05-05 16:13 | 41.14569 | 40.82392 | 35025 ft | 458 kts | 82° |
| 2026-05-05 16:13 | 41.15939 | 40.92079 | 35026 ft | 458 kts | 83° |
| 2026-05-05 16:14 | 41.18080 | 41.07349 | 35017 ft | 459 kts | 83° |
| 2026-05-05 16:15 | 41.20396 | 41.24042 | 35024 ft | 459 kts | 83° |
| 2026-05-05 16:16 | 41.22679 | 41.40682 | 35015 ft | 459 kts | 83° |
| 2026-05-05 16:17 | 41.24383 | 41.53220 | 35010 ft | 460 kts | 83° |
| 2026-05-05 16:18 | 41.26078 | 41.65804 | 35016 ft | 461 kts | 83° |
| 2026-05-05 16:19 | 41.27762 | 41.78414 | 35024 ft | 462 kts | 83° |
| 2026-05-05 16:19 | 41.29435 | 41.91043 | 34997 ft | 462 kts | 83° |
| 2026-05-05 16:20 | 41.31627 | 42.07915 | 35009 ft | 463 kts | 83° |
| 2026-05-05 16:22 | 41.34314 | 42.29051 | 34988 ft | 464 kts | 83° |
| 2026-05-05 16:22 | 41.35376 | 42.37487 | 34332 ft | 457 kts | 84° |
| 2026-05-05 16:23 | 41.36415 | 42.45748 | 33475 ft | 449 kts | 84° |
| 2026-05-05 16:23 | 41.36923 | 42.49824 | 33066 ft | 444 kts | 84° |
| 2026-05-05 16:23 | 41.37922 | 42.57871 | 32215 ft | 437 kts | 84° |
| 2026-05-05 16:24 | 41.38412 | 42.61840 | 31860 ft | 431 kts | 84° |
| 2026-05-05 16:24 | 41.38896 | 42.65767 | 31443 ft | 428 kts | 83° |
| 2026-05-05 16:24 | 41.39848 | 42.73529 | 30666 ft | 421 kts | 83° |
| 2026-05-05 16:25 | 41.40310 | 42.77314 | 30297 ft | 418 kts | 83° |
| 2026-05-05 16:25 | 41.41232 | 42.84903 | 29436 ft | 412 kts | 83° |
| 2026-05-05 16:25 | 41.41686 | 42.88646 | 29078 ft | 406 kts | 83° |
| 2026-05-05 16:26 | 41.42575 | 42.96015 | 28289 ft | 398 kts | 83° |
| 2026-05-05 16:26 | 41.43438 | 43.03183 | 27802 ft | 383 kts | 83° |
| 2026-05-05 16:27 | 41.43858 | 43.06680 | 27275 ft | 383 kts | 83° |
| 2026-05-05 16:27 | 41.44275 | 43.10161 | 27064 ft | 376 kts | 83° |
| 2026-05-05 16:27 | 41.44686 | 43.13602 | 26532 ft | 378 kts | 82° |
| 2026-05-05 16:27 | 41.45092 | 43.17017 | 26344 ft | 370 kts | 82° |
| 2026-05-05 16:28 | 41.45496 | 43.20417 | 25802 ft | 372 kts | 82° |
| 2026-05-05 16:28 | 41.45895 | 43.23782 | 25577 ft | 365 kts | 83° |
| 2026-05-05 16:28 | 41.46292 | 43.27141 | 25124 ft | 366 kts | 83° |
| 2026-05-05 16:28 | 41.46679 | 43.30422 | 24804 ft | 363 kts | 83° |
| 2026-05-05 16:29 | 41.47071 | 43.33758 | 24428 ft | 361 kts | 83° |
| 2026-05-05 16:29 | 41.47460 | 43.37085 | 23801 ft | 368 kts | 83° |
| 2026-05-05 16:29 | 41.47856 | 43.40480 | 23228 ft | 371 kts | 83° |
| 2026-05-05 16:29 | 41.48250 | 43.43856 | 22875 ft | 367 kts | 83° |
| 2026-05-05 16:30 | 41.48639 | 43.47188 | 22541 ft | 363 kts | 83° |
| 2026-05-05 16:30 | 41.49024 | 43.50503 | 22132 ft | 361 kts | 83° |
| 2026-05-05 16:30 | 41.49406 | 43.53804 | 21683 ft | 360 kts | 83° |
| 2026-05-05 16:30 | 41.49787 | 43.57102 | 21262 ft | 359 kts | 83° |
| 2026-05-05 16:31 | 41.50165 | 43.60388 | 20890 ft | 357 kts | 83° |
| 2026-05-05 16:31 | 41.50540 | 43.63646 | 20524 ft | 354 kts | 83° |
| 2026-05-05 16:31 | 41.50911 | 43.66890 | 20154 ft | 352 kts | 83° |
| 2026-05-05 16:31 | 41.51281 | 43.70113 | 19812 ft | 350 kts | 83° |
| 2026-05-05 16:32 | 41.51645 | 43.73312 | 19461 ft | 348 kts | 83° |
| 2026-05-05 16:32 | 41.52008 | 43.76504 | 19089 ft | 347 kts | 83° |
| 2026-05-05 16:32 | 41.52368 | 43.79682 | 18726 ft | 346 kts | 83° |
| 2026-05-05 16:32 | 41.52726 | 43.82846 | 18394 ft | 344 kts | 83° |
| 2026-05-05 16:33 | 41.53081 | 43.85992 | 18027 ft | 342 kts | 83° |
| 2026-05-05 16:33 | 41.53433 | 43.89120 | 17649 ft | 340 kts | 83° |
| 2026-05-05 16:33 | 41.53782 | 43.92233 | 17258 ft | 338 kts | 83° |
| 2026-05-05 16:33 | 41.54129 | 43.95325 | 16889 ft | 336 kts | 83° |
| 2026-05-05 16:34 | 41.54469 | 43.98376 | 16517 ft | 335 kts | 83° |
| 2026-05-05 16:34 | 41.54811 | 44.01441 | 16151 ft | 333 kts | 83° |
| 2026-05-05 16:34 | 41.55149 | 44.04486 | 15801 ft | 331 kts | 83° |
| 2026-05-05 16:34 | 41.55486 | 44.07521 | 15433 ft | 330 kts | 83° |
| 2026-05-05 16:35 | 41.55820 | 44.10539 | 15072 ft | 328 kts | 83° |
| 2026-05-05 16:35 | 41.56152 | 44.13543 | 14734 ft | 327 kts | 83° |
| 2026-05-05 16:35 | 41.56481 | 44.16539 | 14405 ft | 325 kts | 83° |
| 2026-05-05 16:35 | 41.56809 | 44.19521 | 14084 ft | 324 kts | 83° |
| 2026-05-05 16:36 | 41.57125 | 44.22492 | 13749 ft | 322 kts | 86° |
| 2026-05-05 16:36 | 41.57016 | 44.25453 | 13288 ft | 320 kts | 102° |
| 2026-05-05 16:36 | 41.56597 | 44.28318 | 13098 ft | 308 kts | 103° |
| 2026-05-05 16:36 | 41.56191 | 44.31126 | 12451 ft | 310 kts | 102° |
| 2026-05-05 16:37 | 41.55792 | 44.33991 | 11945 ft | 314 kts | 102° |
| 2026-05-05 16:37 | 41.55408 | 44.36841 | 11734 ft | 308 kts | 101° |
| 2026-05-05 16:37 | 41.55042 | 44.39610 | 11429 ft | 306 kts | 101° |
| 2026-05-05 16:37 | 41.54673 | 44.42413 | 11053 ft | 307 kts | 101° |
| 2026-05-05 16:38 | 41.54303 | 44.45212 | 10737 ft | 305 kts | 101° |
| 2026-05-05 16:38 | 41.53938 | 44.47992 | 10437 ft | 302 kts | 101° |
| 2026-05-05 16:38 | 41.53580 | 44.50725 | 9999 ft | 298 kts | 101° |
| 2026-05-05 16:38 | 41.53220 | 44.53459 | 9352 ft | 300 kts | 101° |
| 2026-05-05 16:39 | 41.52861 | 44.56186 | 8893 ft | 295 kts | 100° |
| 2026-05-05 16:39 | 41.52509 | 44.58862 | 8425 ft | 291 kts | 100° |
| 2026-05-05 16:39 | 41.52159 | 44.61517 | 7906 ft | 289 kts | 100° |
| 2026-05-05 16:39 | 41.51811 | 44.64146 | 7436 ft | 286 kts | 100° |
| 2026-05-05 16:40 | 41.51465 | 44.66747 | 7001 ft | 284 kts | 99° |
| 2026-05-05 16:40 | 41.51122 | 44.69329 | 6567 ft | 281 kts | 99° |
| 2026-05-05 16:40 | 41.50780 | 44.71880 | 6088 ft | 278 kts | 99° |
| 2026-05-05 16:40 | 41.50439 | 44.74415 | 5550 ft | 278 kts | 99° |
| 2026-05-05 16:41 | 41.50097 | 44.76950 | 5038 ft | 277 kts | 99° |
| 2026-05-05 16:41 | 41.49758 | 44.79464 | 4583 ft | 274 kts | 99° |
| 2026-05-05 16:41 | 41.49434 | 44.81860 | 4527 ft | 254 kts | 99° |
| 2026-05-05 16:41 | 41.49131 | 44.84098 | 4476 ft | 237 kts | 99° |
| 2026-05-05 16:42 | 41.48847 | 44.86190 | 4501 ft | 224 kts | 99° |
| 2026-05-05 16:42 | 41.48568 | 44.88255 | 4489 ft | 227 kts | 99° |
| 2026-05-05 16:42 | 41.48289 | 44.90318 | 4483 ft | 225 kts | 99° |
| 2026-05-05 16:42 | 41.48014 | 44.92342 | 4284 ft | 220 kts | 99° |
| 2026-05-05 16:43 | 41.47739 | 44.94365 | 3977 ft | 222 kts | 99° |
| 2026-05-05 16:43 | 41.47470 | 44.96345 | 3992 ft | 216 kts | 99° |
| 2026-05-05 16:43 | 41.47197 | 44.98347 | 4037 ft | 222 kts | 99° |
| 2026-05-05 16:43 | 41.46926 | 45.00325 | 3993 ft | 210 kts | 99° |
| 2026-05-05 16:44 | 41.46674 | 45.02160 | 3975 ft | 195 kts | 99° |
| 2026-05-05 16:44 | 41.46434 | 45.03905 | 3982 ft | 188 kts | 99° |
| 2026-05-05 16:44 | 41.46302 | 45.05590 | 3937 ft | 182 kts | 78° |
| 2026-05-05 16:44 | 41.46893 | 45.06995 | 4018 ft | 176 kts | 47° |
| 2026-05-05 16:45 | 41.47724 | 45.08183 | 4012 ft | 172 kts | 46° |
| 2026-05-05 16:45 | 41.48539 | 45.09333 | 3979 ft | 169 kts | 46° |
| 2026-05-05 16:45 | 41.49338 | 45.10459 | 3977 ft | 167 kts | 46° |
| 2026-05-05 16:45 | 41.50141 | 45.11587 | 3980 ft | 167 kts | 45° |
| 2026-05-05 16:46 | 41.51123 | 45.12384 | 3985 ft | 166 kts | 17° |
| 2026-05-05 16:46 | 41.52271 | 45.12507 | 3972 ft | 167 kts | 353° |
| 2026-05-05 16:46 | 41.53375 | 45.12021 | 3973 ft | 169 kts | 329° |
| 2026-05-05 16:46 | 41.54279 | 45.11043 | 3989 ft | 167 kts | 317° |
| 2026-05-05 16:47 | 41.55127 | 45.09983 | 3977 ft | 166 kts | 316° |
| 2026-05-05 16:47 | 41.55963 | 45.08926 | 3976 ft | 165 kts | 316° |
| 2026-05-05 16:47 | 41.56795 | 45.07874 | 3978 ft | 164 kts | 316° |
| 2026-05-05 16:47 | 41.57624 | 45.06828 | 3976 ft | 164 kts | 316° |
| 2026-05-05 16:48 | 41.58453 | 45.05783 | 3980 ft | 164 kts | 317° |
| 2026-05-05 16:48 | 41.59279 | 45.04742 | 3984 ft | 163 kts | 317° |
| 2026-05-05 16:48 | 41.60108 | 45.03697 | 3977 ft | 163 kts | 317° |
| 2026-05-05 16:48 | 41.60935 | 45.02655 | 3980 ft | 164 kts | 317° |
| 2026-05-05 16:49 | 41.61761 | 45.01614 | 3957 ft | 165 kts | 317° |
| 2026-05-05 16:49 | 41.62636 | 45.00519 | 3563 ft | 180 kts | 317° |
| 2026-05-05 16:49 | 41.63566 | 44.99395 | 2906 ft | 186 kts | 317° |
| 2026-05-05 16:49 | 41.64509 | 44.98186 | 2287 ft | 186 kts | 315° |
| 2026-05-05 16:50 | 41.65433 | 44.96974 | 1711 ft | 184 kts | 315° |
| 2026-05-05 16:50 | 41.66321 | 44.95866 | 1523 ft | 161 kts | 315° |
| 2026-05-05 16:50 | 41.67005 | 44.95001 | 1525 ft | 103 kts | 317° |
| 2026-05-05 16:50 | 41.67395 | 44.94510 | 1521 ft | 54 kts | 317° |
| 2026-05-05 16:51 | 41.67538 | 44.94461 | 1522 ft | 21 kts | 71° |
| 2026-05-05 16:51 | 41.67582 | 44.94639 | 1522 ft | 20 kts | 71° |
| 2026-05-05 16:51 | 41.67625 | 44.94812 | 1523 ft | 19 kts | 74° |
| 2026-05-05 16:51 | 41.67660 | 44.94970 | 1521 ft | 17 kts | 73° |
| 2026-05-05 16:52 | 41.67619 | 44.95104 | 1521 ft | 15 kts | 133° |
| 2026-05-05 16:52 | 41.67565 | 44.95182 | 1524 ft | 11 kts | 132° |
| 2026-05-05 16:52 | 41.67517 | 44.95253 | 1524 ft | 10 kts | 131° |
| 2026-05-05 16:52 | 41.67471 | 44.95323 | 1525 ft | 10 kts | 131° |
| 2026-05-05 16:53 | 41.67450 | 44.95354 | 1520 ft | 9 kts | 131° |
| 2026-05-05 16:53 | 41.67378 | 44.95466 | 1520 ft | 21 kts | 131° |
| 2026-05-05 16:53 | 41.67283 | 44.95599 | 1525 ft | 16 kts | 134° |
| 2026-05-05 16:53 | 41.67205 | 44.95707 | 1525 ft | 16 kts | 135° |
| 2026-05-05 16:54 | 41.67129 | 44.95812 | 1524 ft | 16 kts | 134° |
| 2026-05-05 16:54 | 41.67062 | 44.95931 | 1524 ft | 16 kts | 119° |
| 2026-05-05 16:54 | 41.66991 | 44.96040 | 1524 ft | 15 kts | 133° |
| 2026-05-05 16:54 | 41.66920 | 44.96141 | 1523 ft | 15 kts | 132° |
| 2026-05-05 16:55 | 41.66856 | 44.96241 | 1524 ft | 14 kts | 133° |
| 2026-05-05 16:55 | 41.66816 | 44.96316 | 1524 ft | 6 kts | 91° |
| 2026-05-05 16:55 | 41.66837 | 44.96361 | 1521 ft | 6 kts | 44° |
| 2026-05-05 16:55 | 41.66858 | 44.96389 | 1524 ft | 0 kts | 45° |